sensor_id;sensor_type;location;lat;lon;timestamp;P1;durP1;ratioP1;P2;durP2;ratioP2
74963;SDS011;63521;51.900;4.748;2023-06-22T00:02:12;1.20;;;1.08;;
74963;SDS011;63521;51.900;4.748;2023-06-22T00:04:37;2.13;;;1.40;;
74963;SDS011;63521;51.900;4.748;2023-06-22T00:07:03;2.00;;;1.30;;
74963;SDS011;63521;51.900;4.748;2023-06-22T00:09:28;1.73;;;1.38;;
74963;SDS011;63521;51.900;4.748;2023-06-22T00:11:55;1.88;;;1.40;;
74963;SDS011;63521;51.900;4.748;2023-06-22T00:14:20;1.40;;;1.30;;
74963;SDS011;63521;51.900;4.748;2023-06-22T00:16:45;1.85;;;1.23;;
74963;SDS011;63521;51.900;4.748;2023-06-22T00:19:14;1.83;;;1.48;;
74963;SDS011;63521;51.900;4.748;2023-06-22T00:21:40;2.00;;;1.23;;
74963;SDS011;63521;51.900;4.748;2023-06-22T00:24:05;1.38;;;1.23;;
74963;SDS011;63521;51.900;4.748;2023-06-22T00:26:31;1.98;;;1.23;;
74963;SDS011;63521;51.900;4.748;2023-06-22T00:28:57;1.75;;;1.10;;
74963;SDS011;63521;51.900;4.748;2023-06-22T00:31:22;2.38;;;1.30;;
74963;SDS011;63521;51.900;4.748;2023-06-22T00:33:47;1.73;;;1.20;;
74963;SDS011;63521;51.900;4.748;2023-06-22T00:36:15;1.98;;;1.55;;
74963;SDS011;63521;51.900;4.748;2023-06-22T00:38:41;2.03;;;1.45;;
74963;SDS011;63521;51.900;4.748;2023-06-22T00:41:07;2.80;;;1.60;;
74963;SDS011;63521;51.900;4.748;2023-06-22T00:43:32;1.70;;;1.20;;
74963;SDS011;63521;51.900;4.748;2023-06-22T00:45:57;1.83;;;1.45;;
74963;SDS011;63521;51.900;4.748;2023-06-22T00:48:23;1.73;;;1.30;;
74963;SDS011;63521;51.900;4.748;2023-06-22T00:50:48;1.30;;;1.20;;
74963;SDS011;63521;51.900;4.748;2023-06-22T00:53:16;1.73;;;1.42;;
74963;SDS011;63521;51.900;4.748;2023-06-22T00:55:43;2.13;;;1.20;;
74963;SDS011;63521;51.900;4.748;2023-06-22T00:58:10;1.80;;;1.50;;
74963;SDS011;63521;51.900;4.748;2023-06-22T01:00:37;1.77;;;1.30;;
74963;SDS011;63521;51.900;4.748;2023-06-22T01:03:03;1.85;;;1.30;;
74963;SDS011;63521;51.900;4.748;2023-06-22T01:05:29;2.28;;;1.30;;
74963;SDS011;63521;51.900;4.748;2023-06-22T01:08:05;2.00;;;1.40;;
74963;SDS011;63521;51.900;4.748;2023-06-22T01:10:43;1.55;;;1.27;;
74963;SDS011;63521;51.900;4.748;2023-06-22T01:16:05;1.90;;;1.52;;
74963;SDS011;63521;51.900;4.748;2023-06-22T01:18:34;1.88;;;1.60;;
74963;SDS011;63521;51.900;4.748;2023-06-22T01:21:02;1.95;;;1.38;;
74963;SDS011;63521;51.900;4.748;2023-06-22T01:29:08;3.05;;;1.60;;
74963;SDS011;63521;51.900;4.748;2023-06-22T01:31:37;2.05;;;1.50;;
74963;SDS011;63521;51.900;4.748;2023-06-22T01:34:05;2.67;;;1.38;;
74963;SDS011;63521;51.900;4.748;2023-06-22T01:36:32;1.50;;;1.40;;
74963;SDS011;63521;51.900;4.748;2023-06-22T01:38:58;1.63;;;1.38;;
74963;SDS011;63521;51.900;4.748;2023-06-22T01:41:27;2.05;;;1.65;;
74963;SDS011;63521;51.900;4.748;2023-06-22T01:43:54;2.17;;;1.60;;
74963;SDS011;63521;51.900;4.748;2023-06-22T01:46:21;3.10;;;1.65;;
74963;SDS011;63521;51.900;4.748;2023-06-22T01:48:47;2.33;;;1.70;;
74963;SDS011;63521;51.900;4.748;2023-06-22T01:51:13;2.17;;;1.50;;
74963;SDS011;63521;51.900;4.748;2023-06-22T01:53:38;1.95;;;1.70;;
74963;SDS011;63521;51.900;4.748;2023-06-22T01:56:04;2.42;;;1.70;;
74963;SDS011;63521;51.900;4.748;2023-06-22T01:58:30;2.10;;;1.67;;
74963;SDS011;63521;51.900;4.748;2023-06-22T02:03:38;2.60;;;1.63;;
74963;SDS011;63521;51.900;4.748;2023-06-22T02:06:09;1.75;;;1.52;;
74963;SDS011;63521;51.900;4.748;2023-06-22T02:08:40;2.25;;;1.50;;
74963;SDS011;63521;51.900;4.748;2023-06-22T02:11:07;1.90;;;1.65;;
74963;SDS011;63521;51.900;4.748;2023-06-22T02:13:33;2.22;;;1.50;;
74963;SDS011;63521;51.900;4.748;2023-06-22T02:15:59;3.20;;;1.80;;
74963;SDS011;63521;51.900;4.748;2023-06-22T02:18:25;1.73;;;1.55;;
74963;SDS011;63521;51.900;4.748;2023-06-22T02:20:50;2.30;;;1.40;;
74963;SDS011;63521;51.900;4.748;2023-06-22T02:23:16;2.35;;;1.50;;
74963;SDS011;63521;51.900;4.748;2023-06-22T02:25:41;2.42;;;1.75;;
74963;SDS011;63521;51.900;4.748;2023-06-22T02:28:09;2.15;;;1.40;;
74963;SDS011;63521;51.900;4.748;2023-06-22T02:30:34;2.00;;;1.60;;
74963;SDS011;63521;51.900;4.748;2023-06-22T02:33:00;2.58;;;1.40;;
74963;SDS011;63521;51.900;4.748;2023-06-22T02:35:28;3.22;;;1.80;;
74963;SDS011;63521;51.900;4.748;2023-06-22T02:38:00;2.05;;;1.40;;
74963;SDS011;63521;51.900;4.748;2023-06-22T02:40:27;2.13;;;1.48;;
74963;SDS011;63521;51.900;4.748;2023-06-22T02:42:54;2.83;;;1.60;;
74963;SDS011;63521;51.900;4.748;2023-06-22T02:45:19;2.58;;;1.70;;
74963;SDS011;63521;51.900;4.748;2023-06-22T02:47:45;2.22;;;1.67;;
74963;SDS011;63521;51.900;4.748;2023-06-22T02:50:10;2.30;;;1.55;;
74963;SDS011;63521;51.900;4.748;2023-06-22T02:52:36;2.95;;;1.42;;
74963;SDS011;63521;51.900;4.748;2023-06-22T02:55:01;2.55;;;1.70;;
74963;SDS011;63521;51.900;4.748;2023-06-22T02:57:27;2.03;;;1.70;;
74963;SDS011;63521;51.900;4.748;2023-06-22T02:59:52;2.22;;;1.70;;
74963;SDS011;63521;51.900;4.748;2023-06-22T03:02:17;2.22;;;1.55;;
74963;SDS011;63521;51.900;4.748;2023-06-22T03:04:45;2.85;;;1.60;;
74963;SDS011;63521;51.900;4.748;2023-06-22T03:07:14;2.33;;;1.58;;
74963;SDS011;63521;51.900;4.748;2023-06-22T03:09:39;2.35;;;1.83;;
74963;SDS011;63521;51.900;4.748;2023-06-22T03:12:07;1.98;;;1.60;;
74963;SDS011;63521;51.900;4.748;2023-06-22T03:14:33;2.33;;;1.60;;
74963;SDS011;63521;51.900;4.748;2023-06-22T03:16:58;2.25;;;1.50;;
74963;SDS011;63521;51.900;4.748;2023-06-22T03:19:28;2.20;;;1.60;;
74963;SDS011;63521;51.900;4.748;2023-06-22T03:21:55;2.58;;;1.63;;
74963;SDS011;63521;51.900;4.748;2023-06-22T03:24:20;2.28;;;1.60;;
74963;SDS011;63521;51.900;4.748;2023-06-22T03:26:46;2.97;;;1.80;;
74963;SDS011;63521;51.900;4.748;2023-06-22T03:29:12;2.53;;;1.52;;
74963;SDS011;63521;51.900;4.748;2023-06-22T03:31:37;2.38;;;1.70;;
74963;SDS011;63521;51.900;4.748;2023-06-22T03:34:03;2.17;;;1.42;;
74963;SDS011;63521;51.900;4.748;2023-06-22T03:36:28;1.92;;;1.40;;
74963;SDS011;63521;51.900;4.748;2023-06-22T03:38:54;2.40;;;1.55;;
74963;SDS011;63521;51.900;4.748;2023-06-22T03:41:19;1.98;;;1.40;;
74963;SDS011;63521;51.900;4.748;2023-06-22T03:43:44;1.83;;;1.60;;
74963;SDS011;63521;51.900;4.748;2023-06-22T03:46:10;2.10;;;1.65;;
74963;SDS011;63521;51.900;4.748;2023-06-22T03:48:35;3.13;;;1.65;;
74963;SDS011;63521;51.900;4.748;2023-06-22T03:51:01;1.95;;;1.50;;
74963;SDS011;63521;51.900;4.748;2023-06-22T03:53:28;1.90;;;1.50;;
74963;SDS011;63521;51.900;4.748;2023-06-22T03:55:53;2.38;;;1.75;;
74963;SDS011;63521;51.900;4.748;2023-06-22T03:58:19;2.03;;;1.52;;
74963;SDS011;63521;51.900;4.748;2023-06-22T04:00:49;1.95;;;1.63;;
74963;SDS011;63521;51.900;4.748;2023-06-22T04:03:15;2.00;;;1.50;;
74963;SDS011;63521;51.900;4.748;2023-06-22T04:05:42;2.17;;;1.42;;
74963;SDS011;63521;51.900;4.748;2023-06-22T04:08:08;2.20;;;1.58;;
74963;SDS011;63521;51.900;4.748;2023-06-22T04:10:33;2.60;;;1.40;;
74963;SDS011;63521;51.900;4.748;2023-06-22T04:12:59;1.85;;;1.48;;
74963;SDS011;63521;51.900;4.748;2023-06-22T04:15:25;2.03;;;1.30;;
74963;SDS011;63521;51.900;4.748;2023-06-22T04:17:50;2.58;;;1.40;;
74963;SDS011;63521;51.900;4.748;2023-06-22T04:20:16;1.80;;;1.30;;
74963;SDS011;63521;51.900;4.748;2023-06-22T04:22:41;2.90;;;1.40;;
74963;SDS011;63521;51.900;4.748;2023-06-22T04:25:07;2.08;;;1.52;;
74963;SDS011;63521;51.900;4.748;2023-06-22T04:27:33;2.50;;;1.58;;
74963;SDS011;63521;51.900;4.748;2023-06-22T04:30:05;1.85;;;1.27;;
74963;SDS011;63521;51.900;4.748;2023-06-22T04:32:34;2.00;;;1.25;;
74963;SDS011;63521;51.900;4.748;2023-06-22T04:35:01;2.13;;;1.60;;
74963;SDS011;63521;51.900;4.748;2023-06-22T04:37:29;2.58;;;1.60;;
74963;SDS011;63521;51.900;4.748;2023-06-22T04:39:55;1.95;;;1.45;;
74963;SDS011;63521;51.900;4.748;2023-06-22T04:42:20;2.30;;;1.50;;
74963;SDS011;63521;51.900;4.748;2023-06-22T04:44:46;2.00;;;1.50;;
74963;SDS011;63521;51.900;4.748;2023-06-22T04:47:11;1.80;;;1.33;;
74963;SDS011;63521;51.900;4.748;2023-06-22T04:49:37;1.60;;;1.40;;
74963;SDS011;63521;51.900;4.748;2023-06-22T04:52:03;2.00;;;1.50;;
74963;SDS011;63521;51.900;4.748;2023-06-22T04:54:33;1.77;;;1.35;;
74963;SDS011;63521;51.900;4.748;2023-06-22T04:57:02;2.42;;;1.48;;
74963;SDS011;63521;51.900;4.748;2023-06-22T04:59:29;1.17;;;1.08;;
74963;SDS011;63521;51.900;4.748;2023-06-22T05:01:59;1.58;;;1.23;;
74963;SDS011;63521;51.900;4.748;2023-06-22T05:04:26;2.38;;;1.30;;
74963;SDS011;63521;51.900;4.748;2023-06-22T05:07:00;1.70;;;1.55;;
74963;SDS011;63521;51.900;4.748;2023-06-22T05:09:26;1.33;;;1.17;;
74963;SDS011;63521;51.900;4.748;2023-06-22T05:11:51;1.80;;;1.40;;
74963;SDS011;63521;51.900;4.748;2023-06-22T05:14:17;1.70;;;1.20;;
74963;SDS011;63521;51.900;4.748;2023-06-22T05:16:44;2.55;;;1.58;;
74963;SDS011;63521;51.900;4.748;2023-06-22T05:19:10;2.42;;;1.55;;
74963;SDS011;63521;51.900;4.748;2023-06-22T05:21:35;1.88;;;1.30;;
74963;SDS011;63521;51.900;4.748;2023-06-22T05:24:01;1.83;;;1.27;;
74963;SDS011;63521;51.900;4.748;2023-06-22T05:26:28;1.58;;;1.20;;
74963;SDS011;63521;51.900;4.748;2023-06-22T05:28:57;2.65;;;1.50;;
74963;SDS011;63521;51.900;4.748;2023-06-22T05:31:25;2.22;;;1.48;;
74963;SDS011;63521;51.900;4.748;2023-06-22T05:33:51;1.85;;;1.52;;
74963;SDS011;63521;51.900;4.748;2023-06-22T05:36:18;1.63;;;1.30;;
74963;SDS011;63521;51.900;4.748;2023-06-22T05:38:46;1.63;;;1.20;;
74963;SDS011;63521;51.900;4.748;2023-06-22T05:41:12;2.28;;;1.70;;
74963;SDS011;63521;51.900;4.748;2023-06-22T05:43:37;2.50;;;1.48;;
74963;SDS011;63521;51.900;4.748;2023-06-22T05:46:03;2.22;;;1.45;;
74963;SDS011;63521;51.900;4.748;2023-06-22T05:48:29;2.33;;;1.30;;
74963;SDS011;63521;51.900;4.748;2023-06-22T05:51:02;2.40;;;1.80;;
74963;SDS011;63521;51.900;4.748;2023-06-22T05:53:29;3.08;;;1.60;;
74963;SDS011;63521;51.900;4.748;2023-06-22T05:55:55;2.17;;;1.67;;
74963;SDS011;63521;51.900;4.748;2023-06-22T05:58:20;1.75;;;1.25;;
74963;SDS011;63521;51.900;4.748;2023-06-22T06:00:47;2.00;;;1.38;;
74963;SDS011;63521;51.900;4.748;2023-06-22T06:03:13;1.98;;;1.48;;
74963;SDS011;63521;51.900;4.748;2023-06-22T06:05:42;1.60;;;1.25;;
74963;SDS011;63521;51.900;4.748;2023-06-22T06:08:08;2.75;;;1.40;;
74963;SDS011;63521;51.900;4.748;2023-06-22T06:10:35;1.88;;;1.40;;
74963;SDS011;63521;51.900;4.748;2023-06-22T06:13:01;2.40;;;1.55;;
74963;SDS011;63521;51.900;4.748;2023-06-22T06:15:27;2.00;;;1.38;;
74963;SDS011;63521;51.900;4.748;2023-06-22T06:17:53;1.83;;;1.52;;
74963;SDS011;63521;51.900;4.748;2023-06-22T06:20:19;1.55;;;1.40;;
74963;SDS011;63521;51.900;4.748;2023-06-22T06:22:47;1.60;;;1.48;;
74963;SDS011;63521;51.900;4.748;2023-06-22T06:25:12;3.55;;;2.05;;
74963;SDS011;63521;51.900;4.748;2023-06-22T06:27:50;3.58;;;2.55;;
74963;SDS011;63521;51.900;4.748;2023-06-22T06:30:16;5.40;;;2.22;;
74963;SDS011;63521;51.900;4.748;2023-06-22T06:32:43;2.80;;;1.80;;
74963;SDS011;63521;51.900;4.748;2023-06-22T06:35:10;2.28;;;1.92;;
74963;SDS011;63521;51.900;4.748;2023-06-22T06:37:37;2.47;;;1.90;;
74963;SDS011;63521;51.900;4.748;2023-06-22T06:40:07;3.38;;;2.10;;
74963;SDS011;63521;51.900;4.748;2023-06-22T06:42:42;2.70;;;1.70;;
74963;SDS011;63521;51.900;4.748;2023-06-22T06:45:17;2.42;;;1.63;;
74963;SDS011;63521;51.900;4.748;2023-06-22T06:47:43;2.83;;;1.90;;
74963;SDS011;63521;51.900;4.748;2023-06-22T06:50:10;2.83;;;1.90;;
74963;SDS011;63521;51.900;4.748;2023-06-22T06:52:36;1.95;;;1.55;;
74963;SDS011;63521;51.900;4.748;2023-06-22T06:55:01;2.63;;;2.10;;
74963;SDS011;63521;51.900;4.748;2023-06-22T06:57:29;2.25;;;1.70;;
74963;SDS011;63521;51.900;4.748;2023-06-22T06:59:55;3.85;;;1.83;;
74963;SDS011;63521;51.900;4.748;2023-06-22T07:02:21;2.00;;;1.65;;
74963;SDS011;63521;51.900;4.748;2023-06-22T07:04:47;2.67;;;1.70;;
74963;SDS011;63521;51.900;4.748;2023-06-22T07:07:13;2.67;;;1.80;;
74963;SDS011;63521;51.900;4.748;2023-06-22T07:09:39;2.55;;;1.67;;
74963;SDS011;63521;51.900;4.748;2023-06-22T07:12:04;3.30;;;1.73;;
74963;SDS011;63521;51.900;4.748;2023-06-22T07:14:30;2.78;;;1.90;;
74963;SDS011;63521;51.900;4.748;2023-06-22T07:16:57;3.47;;;1.92;;
74963;SDS011;63521;51.900;4.748;2023-06-22T07:19:26;2.08;;;1.50;;
74963;SDS011;63521;51.900;4.748;2023-06-22T07:21:54;3.25;;;2.10;;
74963;SDS011;63521;51.900;4.748;2023-06-22T07:24:20;2.63;;;1.83;;
74963;SDS011;63521;51.900;4.748;2023-06-22T07:26:49;2.25;;;1.85;;
74963;SDS011;63521;51.900;4.748;2023-06-22T07:29:18;1.98;;;1.50;;
74963;SDS011;63521;51.900;4.748;2023-06-22T07:31:45;2.20;;;1.50;;
74963;SDS011;63521;51.900;4.748;2023-06-22T07:34:11;1.92;;;1.75;;
74963;SDS011;63521;51.900;4.748;2023-06-22T07:36:37;2.13;;;1.83;;
74963;SDS011;63521;51.900;4.748;2023-06-22T07:39:03;1.83;;;1.52;;
74963;SDS011;63521;51.900;4.748;2023-06-22T07:41:29;2.35;;;1.70;;
74963;SDS011;63521;51.900;4.748;2023-06-22T07:43:54;3.13;;;1.88;;
74963;SDS011;63521;51.900;4.748;2023-06-22T07:46:20;3.33;;;1.67;;
74963;SDS011;63521;51.900;4.748;2023-06-22T07:48:45;2.60;;;1.60;;
74963;SDS011;63521;51.900;4.748;2023-06-22T07:51:10;2.20;;;1.58;;
74963;SDS011;63521;51.900;4.748;2023-06-22T07:53:38;2.90;;;2.03;;
74963;SDS011;63521;51.900;4.748;2023-06-22T07:56:05;2.33;;;1.92;;
74963;SDS011;63521;51.900;4.748;2023-06-22T07:58:32;2.83;;;2.05;;
74963;SDS011;63521;51.900;4.748;2023-06-22T08:00:57;2.63;;;2.00;;
74963;SDS011;63521;51.900;4.748;2023-06-22T08:03:23;2.58;;;1.92;;
74963;SDS011;63521;51.900;4.748;2023-06-22T08:05:48;2.35;;;1.85;;
74963;SDS011;63521;51.900;4.748;2023-06-22T08:08:14;2.35;;;2.00;;
74963;SDS011;63521;51.900;4.748;2023-06-22T08:10:40;2.75;;;1.88;;
74963;SDS011;63521;51.900;4.748;2023-06-22T08:13:07;2.75;;;2.00;;
74963;SDS011;63521;51.900;4.748;2023-06-22T08:15:32;2.40;;;1.92;;
74963;SDS011;63521;51.900;4.748;2023-06-22T08:17:57;3.17;;;2.10;;
74963;SDS011;63521;51.900;4.748;2023-06-22T08:20:24;3.35;;;2.40;;
74963;SDS011;63521;51.900;4.748;2023-06-22T08:22:49;2.33;;;1.95;;
74963;SDS011;63521;51.900;4.748;2023-06-22T08:25:15;4.00;;;2.35;;
74963;SDS011;63521;51.900;4.748;2023-06-22T08:27:40;3.30;;;2.80;;
74963;SDS011;63521;51.900;4.748;2023-06-22T08:30:06;4.05;;;2.47;;
74963;SDS011;63521;51.900;4.748;2023-06-22T08:32:32;5.10;;;2.53;;
74963;SDS011;63521;51.900;4.748;2023-06-22T08:34:58;2.70;;;2.10;;
74963;SDS011;63521;51.900;4.748;2023-06-22T08:37:23;3.92;;;2.53;;
74963;SDS011;63521;51.900;4.748;2023-06-22T08:39:59;3.45;;;2.30;;
74963;SDS011;63521;51.900;4.748;2023-06-22T08:42:24;3.45;;;2.70;;
74963;SDS011;63521;51.900;4.748;2023-06-22T08:44:50;4.15;;;2.13;;
74963;SDS011;63521;51.900;4.748;2023-06-22T08:47:16;2.30;;;2.00;;
74963;SDS011;63521;51.900;4.748;2023-06-22T08:49:41;3.97;;;2.90;;
74963;SDS011;63521;51.900;4.748;2023-06-22T08:52:07;3.67;;;2.33;;
74963;SDS011;63521;51.900;4.748;2023-06-22T08:54:32;2.47;;;2.08;;
74963;SDS011;63521;51.900;4.748;2023-06-22T08:56:59;3.75;;;2.03;;
74963;SDS011;63521;51.900;4.748;2023-06-22T08:59:25;4.18;;;2.13;;
74963;SDS011;63521;51.900;4.748;2023-06-22T09:01:51;2.78;;;2.45;;
74963;SDS011;63521;51.900;4.748;2023-06-22T09:04:16;3.42;;;2.45;;
74963;SDS011;63521;51.900;4.748;2023-06-22T09:06:42;3.15;;;2.25;;
74963;SDS011;63521;51.900;4.748;2023-06-22T09:09:10;4.47;;;2.67;;
74963;SDS011;63521;51.900;4.748;2023-06-22T09:11:36;3.25;;;2.65;;
74963;SDS011;63521;51.900;4.748;2023-06-22T09:14:02;4.65;;;2.72;;
74963;SDS011;63521;51.900;4.748;2023-06-22T09:16:28;4.05;;;2.50;;
74963;SDS011;63521;51.900;4.748;2023-06-22T09:18:54;3.63;;;2.65;;
74963;SDS011;63521;51.900;4.748;2023-06-22T09:21:19;2.80;;;2.53;;
74963;SDS011;63521;51.900;4.748;2023-06-22T09:23:45;2.70;;;2.20;;
74963;SDS011;63521;51.900;4.748;2023-06-22T09:26:15;3.17;;;2.55;;
74963;SDS011;63521;51.900;4.748;2023-06-22T09:28:40;3.35;;;2.38;;
74963;SDS011;63521;51.900;4.748;2023-06-22T09:31:06;3.88;;;3.03;;
74963;SDS011;63521;51.900;4.748;2023-06-22T09:33:32;3.95;;;2.47;;
74963;SDS011;63521;51.900;4.748;2023-06-22T09:35:57;4.10;;;2.85;;
74963;SDS011;63521;51.900;4.748;2023-06-22T09:38:23;4.38;;;3.10;;
74963;SDS011;63521;51.900;4.748;2023-06-22T09:40:48;4.32;;;2.60;;
74963;SDS011;63521;51.900;4.748;2023-06-22T09:43:14;3.17;;;2.45;;
74963;SDS011;63521;51.900;4.748;2023-06-22T09:45:39;4.93;;;2.90;;
74963;SDS011;63521;51.900;4.748;2023-06-22T09:48:04;5.40;;;2.72;;
74963;SDS011;63521;51.900;4.748;2023-06-22T09:50:30;5.25;;;3.03;;
74963;SDS011;63521;51.900;4.748;2023-06-22T09:52:55;4.78;;;2.65;;
74963;SDS011;63521;51.900;4.748;2023-06-22T09:55:21;5.70;;;3.55;;
74963;SDS011;63521;51.900;4.748;2023-06-22T09:57:47;6.22;;;3.95;;
74963;SDS011;63521;51.900;4.748;2023-06-22T10:00:13;5.38;;;3.70;;
74963;SDS011;63521;51.900;4.748;2023-06-22T10:02:43;6.75;;;3.28;;
74963;SDS011;63521;51.900;4.748;2023-06-22T10:05:09;5.55;;;3.05;;
74963;SDS011;63521;51.900;4.748;2023-06-22T10:07:34;6.30;;;3.45;;
74963;SDS011;63521;51.900;4.748;2023-06-22T10:10:00;5.72;;;3.50;;
74963;SDS011;63521;51.900;4.748;2023-06-22T10:12:26;5.03;;;2.83;;
74963;SDS011;63521;51.900;4.748;2023-06-22T10:14:52;5.60;;;3.03;;
74963;SDS011;63521;51.900;4.748;2023-06-22T10:17:18;5.30;;;2.80;;
74963;SDS011;63521;51.900;4.748;2023-06-22T10:19:43;4.55;;;3.15;;
74963;SDS011;63521;51.900;4.748;2023-06-22T10:22:08;3.60;;;2.45;;
74963;SDS011;63521;51.900;4.748;2023-06-22T10:24:34;4.43;;;2.90;;
74963;SDS011;63521;51.900;4.748;2023-06-22T10:26:59;4.50;;;2.70;;
74963;SDS011;63521;51.900;4.748;2023-06-22T10:29:25;4.68;;;3.17;;
74963;SDS011;63521;51.900;4.748;2023-06-22T10:31:50;4.55;;;3.08;;
74963;SDS011;63521;51.900;4.748;2023-06-22T10:34:15;4.05;;;2.80;;
74963;SDS011;63521;51.900;4.748;2023-06-22T10:36:41;5.45;;;3.30;;
74963;SDS011;63521;51.900;4.748;2023-06-22T10:39:06;4.13;;;3.08;;
74963;SDS011;63521;51.900;4.748;2023-06-22T10:41:32;4.65;;;3.22;;
74963;SDS011;63521;51.900;4.748;2023-06-22T10:43:57;3.92;;;2.95;;
74963;SDS011;63521;51.900;4.748;2023-06-22T10:46:26;5.72;;;3.42;;
74963;SDS011;63521;51.900;4.748;2023-06-22T10:48:53;5.10;;;3.03;;
74963;SDS011;63521;51.900;4.748;2023-06-22T10:51:20;6.13;;;3.45;;
74963;SDS011;63521;51.900;4.748;2023-06-22T10:53:45;3.88;;;3.45;;
74963;SDS011;63521;51.900;4.748;2023-06-22T10:56:11;4.53;;;3.22;;
74963;SDS011;63521;51.900;4.748;2023-06-22T10:58:36;3.30;;;2.97;;
74963;SDS011;63521;51.900;4.748;2023-06-22T11:01:01;5.72;;;3.13;;
74963;SDS011;63521;51.900;4.748;2023-06-22T11:03:28;3.90;;;2.92;;
74963;SDS011;63521;51.900;4.748;2023-06-22T11:05:53;4.22;;;3.20;;
74963;SDS011;63521;51.900;4.748;2023-06-22T11:08:19;5.00;;;3.60;;
74963;SDS011;63521;51.900;4.748;2023-06-22T11:10:44;4.90;;;3.28;;
74963;SDS011;63521;51.900;4.748;2023-06-22T11:13:10;3.92;;;3.13;;
74963;SDS011;63521;51.900;4.748;2023-06-22T11:15:36;4.28;;;3.42;;
74963;SDS011;63521;51.900;4.748;2023-06-22T11:18:01;4.68;;;3.17;;
74963;SDS011;63521;51.900;4.748;2023-06-22T11:20:26;3.72;;;3.20;;
74963;SDS011;63521;51.900;4.748;2023-06-22T11:22:52;3.63;;;3.20;;
74963;SDS011;63521;51.900;4.748;2023-06-22T11:25:17;4.13;;;3.30;;
74963;SDS011;63521;51.900;4.748;2023-06-22T11:27:43;3.25;;;2.90;;
74963;SDS011;63521;51.900;4.748;2023-06-22T11:30:08;4.85;;;3.22;;
74963;SDS011;63521;51.900;4.748;2023-06-22T11:32:36;4.57;;;3.08;;
74963;SDS011;63521;51.900;4.748;2023-06-22T11:36:12;3.17;;;2.80;;
74963;SDS011;63521;51.900;4.748;2023-06-22T11:38:38;3.88;;;2.90;;
74963;SDS011;63521;51.900;4.748;2023-06-22T11:41:07;5.25;;;3.47;;
74963;SDS011;63521;51.900;4.748;2023-06-22T11:43:33;5.03;;;3.60;;
74963;SDS011;63521;51.900;4.748;2023-06-22T11:45:59;4.88;;;3.17;;
74963;SDS011;63521;51.900;4.748;2023-06-22T11:48:24;4.95;;;3.22;;
74963;SDS011;63521;51.900;4.748;2023-06-22T11:50:50;4.88;;;3.50;;
74963;SDS011;63521;51.900;4.748;2023-06-22T11:53:15;3.53;;;2.72;;
74963;SDS011;63521;51.900;4.748;2023-06-22T11:55:42;4.78;;;3.22;;
74963;SDS011;63521;51.900;4.748;2023-06-22T11:58:08;4.28;;;3.30;;
74963;SDS011;63521;51.900;4.748;2023-06-22T12:00:33;4.93;;;3.83;;
74963;SDS011;63521;51.900;4.748;2023-06-22T12:02:59;4.30;;;3.25;;
74963;SDS011;63521;51.900;4.748;2023-06-22T12:05:24;4.20;;;3.00;;
74963;SDS011;63521;51.900;4.748;2023-06-22T12:07:50;3.33;;;3.03;;
74963;SDS011;63521;51.900;4.748;2023-06-22T12:10:17;4.28;;;3.42;;
74963;SDS011;63521;51.900;4.748;2023-06-22T12:12:42;4.32;;;3.50;;
74963;SDS011;63521;51.900;4.748;2023-06-22T12:15:09;4.40;;;3.30;;
74963;SDS011;63521;51.900;4.748;2023-06-22T12:17:35;4.05;;;3.58;;
74963;SDS011;63521;51.900;4.748;2023-06-22T12:20:00;5.00;;;3.45;;
74963;SDS011;63521;51.900;4.748;2023-06-22T12:22:27;4.43;;;3.28;;
74963;SDS011;63521;51.900;4.748;2023-06-22T12:24:52;4.28;;;3.42;;
74963;SDS011;63521;51.900;4.748;2023-06-22T12:27:17;4.07;;;3.30;;
74963;SDS011;63521;51.900;4.748;2023-06-22T12:29:43;3.80;;;2.92;;
74963;SDS011;63521;51.900;4.748;2023-06-22T12:32:10;4.18;;;3.17;;
74963;SDS011;63521;51.900;4.748;2023-06-22T12:34:38;4.47;;;4.00;;
74963;SDS011;63521;51.900;4.748;2023-06-22T12:37:04;4.00;;;3.08;;
74963;SDS011;63521;51.900;4.748;2023-06-22T12:39:30;5.60;;;3.42;;
74963;SDS011;63521;51.900;4.748;2023-06-22T12:41:56;5.40;;;4.47;;
74963;SDS011;63521;51.900;4.748;2023-06-22T12:44:21;5.28;;;4.38;;
74963;SDS011;63521;51.900;4.748;2023-06-22T12:46:47;5.78;;;4.35;;
74963;SDS011;63521;51.900;4.748;2023-06-22T12:49:13;4.43;;;3.85;;
74963;SDS011;63521;51.900;4.748;2023-06-22T12:51:41;6.43;;;5.03;;
74963;SDS011;63521;51.900;4.748;2023-06-22T12:54:08;5.13;;;3.80;;
74963;SDS011;63521;51.900;4.748;2023-06-22T12:56:33;4.35;;;3.45;;
74963;SDS011;63521;51.900;4.748;2023-06-22T12:58:59;3.78;;;3.38;;
74963;SDS011;63521;51.900;4.748;2023-06-22T13:01:27;5.32;;;4.30;;
74963;SDS011;63521;51.900;4.748;2023-06-22T13:03:52;5.20;;;3.72;;
74963;SDS011;63521;51.900;4.748;2023-06-22T13:06:18;5.90;;;4.50;;
74963;SDS011;63521;51.900;4.748;2023-06-22T13:08:44;5.90;;;4.65;;
74963;SDS011;63521;51.900;4.748;2023-06-22T13:11:09;4.50;;;3.95;;
74963;SDS011;63521;51.900;4.748;2023-06-22T13:13:35;5.18;;;3.92;;
74963;SDS011;63521;51.900;4.748;2023-06-22T13:16:00;5.50;;;4.20;;
74963;SDS011;63521;51.900;4.748;2023-06-22T13:18:26;5.22;;;4.22;;
74963;SDS011;63521;51.900;4.748;2023-06-22T13:20:51;7.45;;;4.43;;
74963;SDS011;63521;51.900;4.748;2023-06-22T13:23:19;5.72;;;4.15;;
74963;SDS011;63521;51.900;4.748;2023-06-22T13:25:45;5.28;;;4.20;;
74963;SDS011;63521;51.900;4.748;2023-06-22T13:28:11;5.28;;;3.88;;
74963;SDS011;63521;51.900;4.748;2023-06-22T13:30:38;4.57;;;3.72;;
74963;SDS011;63521;51.900;4.748;2023-06-22T13:33:04;4.20;;;3.42;;
74963;SDS011;63521;51.900;4.748;2023-06-22T13:35:29;5.05;;;4.55;;
74963;SDS011;63521;51.900;4.748;2023-06-22T13:37:55;4.63;;;3.78;;
74963;SDS011;63521;51.900;4.748;2023-06-22T13:40:20;5.22;;;3.78;;
74963;SDS011;63521;51.900;4.748;2023-06-22T13:42:46;4.30;;;3.65;;
74963;SDS011;63521;51.900;4.748;2023-06-22T13:45:11;4.47;;;3.40;;
74963;SDS011;63521;51.900;4.748;2023-06-22T13:47:36;4.53;;;3.30;;
74963;SDS011;63521;51.900;4.748;2023-06-22T13:50:02;3.67;;;3.30;;
74963;SDS011;63521;51.900;4.748;2023-06-22T13:52:28;3.67;;;3.05;;
74963;SDS011;63521;51.900;4.748;2023-06-22T13:54:53;4.38;;;3.10;;
74963;SDS011;63521;51.900;4.748;2023-06-22T13:57:19;4.32;;;3.25;;
74963;SDS011;63521;51.900;4.748;2023-06-22T13:59:44;4.53;;;3.13;;
74963;SDS011;63521;51.900;4.748;2023-06-22T14:02:10;3.63;;;3.25;;
74963;SDS011;63521;51.900;4.748;2023-06-22T14:04:35;4.18;;;3.08;;
74963;SDS011;63521;51.900;4.748;2023-06-22T14:07:00;3.92;;;3.45;;
74963;SDS011;63521;51.900;4.748;2023-06-22T14:09:26;5.00;;;3.70;;
74963;SDS011;63521;51.900;4.748;2023-06-22T14:11:53;3.97;;;3.28;;
74963;SDS011;63521;51.900;4.748;2023-06-22T14:14:19;6.72;;;3.63;;
74963;SDS011;63521;51.900;4.748;2023-06-22T14:16:44;3.42;;;3.13;;
74963;SDS011;63521;51.900;4.748;2023-06-22T14:19:10;4.47;;;3.35;;
74963;SDS011;63521;51.900;4.748;2023-06-22T14:21:35;4.47;;;3.47;;
74963;SDS011;63521;51.900;4.748;2023-06-22T14:24:01;3.55;;;3.05;;
74963;SDS011;63521;51.900;4.748;2023-06-22T14:26:26;4.22;;;3.30;;
74963;SDS011;63521;51.900;4.748;2023-06-22T14:28:52;4.10;;;3.40;;
74963;SDS011;63521;51.900;4.748;2023-06-22T14:31:18;5.10;;;3.28;;
74963;SDS011;63521;51.900;4.748;2023-06-22T14:33:45;3.65;;;2.88;;
74963;SDS011;63521;51.900;4.748;2023-06-22T14:36:12;6.03;;;3.17;;
74963;SDS011;63521;51.900;4.748;2023-06-22T14:38:38;3.92;;;3.05;;
74963;SDS011;63521;51.900;4.748;2023-06-22T14:41:03;3.90;;;3.40;;
74963;SDS011;63521;51.900;4.748;2023-06-22T14:43:29;3.55;;;2.50;;
74963;SDS011;63521;51.900;4.748;2023-06-22T14:45:54;4.32;;;3.70;;
74963;SDS011;63521;51.900;4.748;2023-06-22T14:48:20;4.18;;;3.25;;
74963;SDS011;63521;51.900;4.748;2023-06-22T14:50:45;4.90;;;3.58;;
74963;SDS011;63521;51.900;4.748;2023-06-22T14:53:10;6.28;;;3.40;;
74963;SDS011;63521;51.900;4.748;2023-06-22T14:55:36;4.15;;;3.05;;